Time;durP1;ratioP1;P1;durP2;ratioP2;P2;SDS_P1;SDS_P2;PMS_P1;PMS_P2;Temp;Humidity;BMP_temperature;BMP_pressure;BME280_temperature;BME280_humidity;BME280_pressure;Samples;Min_cycle;Max_cycle;Signal;HPM_P1;HPM_P2
2022/06/19 00:00:22;;;;;;;16.23;5.28;;;20.80;99.90;;;;;;4825037;29;20549;-88
2022/06/19 00:03:33;;;;;;;13.68;5.45;;;20.90;99.90;;;;;;4879176;29;20413;-88
2022/06/19 00:07:36;;;;;;;8.75;4.03;;;20.70;99.90;;;;;;4862288;29;20082;-88
2022/06/19 00:10:23;;;;;;;6.97;4.07;;;20.60;99.90;;;;;;4888107;29;20129;-91
2022/06/19 00:13:35;;;;;;;8.02;4.25;;;20.50;99.90;;;;;;4881805;29;20060;-91
2022/06/19 00:16:36;;;;;;;5.95;4.32;;;20.60;99.90;;;;;;4881098;29;20161;-88
2022/06/19 00:19:22;;;;;;;5.72;4.13;;;20.60;99.90;;;;;;4892238;29;20607;-90
2022/06/19 00:22:14;;;;;;;7.85;4.40;;;20.50;99.90;;;;;;4893826;29;20184;-90
2022/06/19 00:25:28;;;;;;;8.85;3.95;;;20.50;99.90;;;;;;4888799;29;20181;-88
2022/06/19 00:28:24;;;;;;;8.60;3.83;;;20.60;99.90;;;;;;4882076;29;20184;-88
2022/06/19 00:31:10;;;;;;;8.05;4.38;;;20.50;99.90;;;;;;4887675;29;20057;-88
2022/06/19 00:34:05;;;;;;;6.63;3.85;;;20.50;99.90;;;;;;4890748;29;20192;-90
2022/06/19 00:40:45;;;;;;;7.88;4.22;;;20.30;99.90;;;;;;4889051;29;20116;-89
2022/06/19 00:44:06;;;;;;;11.35;4.82;;;20.40;99.90;;;;;;4877098;29;20056;-88
2022/06/19 00:47:20;;;;;;;6.20;4.28;;;20.50;99.90;;;;;;4875636;29;20556;-89
2022/06/19 01:00:08;;;;;;;7.75;4.25;;;20.40;99.90;;;;;;4912498;29;20658;-89
2022/06/19 01:03:11;;;;;;;8.43;4.88;;;20.10;99.90;;;;;;4913848;29;20520;-89
2022/06/19 01:05:58;;;;;;;8.77;4.40;;;20.10;99.90;;;;;;4903735;29;20091;-90
2022/06/19 01:08:47;;;;;;;7.85;4.75;;;20.10;99.90;;;;;;4911093;29;20059;-89
2022/06/19 01:12:03;;;;;;;6.82;4.43;;;20.10;99.90;;;;;;4905141;23;20063;-89
2022/06/19 01:15:26;;;;;;;5.93;4.15;;;20.00;99.90;;;;;;4882796;29;20537;-88
2022/06/19 01:19:23;;;;;;;6.00;4.18;;;20.10;99.90;;;;;;4887337;29;20056;-89
2022/06/19 01:23:04;;;;;;;6.28;4.25;;;20.10;99.90;;;;;;4881694;29;20055;-90
2022/06/19 01:25:52;;;;;;;6.63;4.53;;;20.00;99.90;;;;;;4890014;29;20051;-89
2022/06/19 01:33:17;;;;;;;10.90;4.10;;;19.90;99.90;;;;;;4940756;23;20055;-90
2022/06/19 01:36:25;;;;;;;6.00;3.90;;;20.00;99.90;;;;;;4876696;29;20047;-92
2022/06/19 01:39:17;;;;;;;6.53;4.45;;;19.80;99.90;;;;;;4883400;29;20067;-91
2022/06/19 01:42:04;;;;;;;6.78;4.40;;;19.70;99.90;;;;;;4886423;29;20124;-89
2022/06/19 01:55:47;;;;;;;;;;;;;;;;;;;;;
2022/06/19 02:03:45;;;;;;;8.70;4.57;;;19.40;99.90;;;;;;4879089;29;20068;-89
2022/06/19 02:14:51;;;;;;;8.32;4.45;;;19.30;99.90;;;;;;5201632;23;20052;-89
2022/06/19 02:40:00;;;;;;;6.22;4.47;;;18.90;99.90;;;;;;4897863;29;20103;-87
2022/06/19 02:47:06;;;;;;;10.25;4.88;;;18.80;99.90;;;;;;4877098;29;20044;-89
2022/06/19 02:49:53;;;;;;;7.00;4.70;;;18.90;99.90;;;;;;4858830;29;20607;-89
2022/06/19 02:52:39;;;;;;;6.70;4.32;;;18.70;99.90;;;;;;4844905;29;20061;-88
2022/06/19 02:55:37;;;;;;;6.88;4.35;;;18.70;99.90;;;;;;4845574;29;20122;-89
2022/06/19 02:58:50;;;;;;;6.10;4.65;;;18.80;99.90;;;;;;4858483;29;20064;-90
2022/06/19 03:01:39;;;;;;;6.00;4.13;;;18.70;99.90;;;;;;4846912;29;20053;-93
2022/06/19 03:04:53;;;;;;;7.88;4.32;;;18.80;99.90;;;;;;4862029;29;20097;-92
2022/06/19 03:12:14;;;;;;;8.43;4.25;;;18.50;99.90;;;;;;4806654;29;20050;-89
2022/06/19 03:15:54;;;;;;;5.97;4.10;;;18.60;99.90;;;;;;4844197;29;20174;-88
2022/06/19 03:23:00;;;;;;;7.93;5.05;;;18.70;99.90;;;;;;4865355;29;20045;-87
2022/06/19 03:26:22;;;;;;;5.47;4.03;;;18.70;99.90;;;;;;4882822;29;20529;-88
2022/06/19 03:30:24;;;;;;;7.15;4.57;;;18.20;99.90;;;;;;4811412;29;20053;-88
2022/06/19 03:33:10;;;;;;;10.38;4.68;;;18.30;99.90;;;;;;4807240;29;20476;-88
2022/06/19 03:36:32;;;;;;;8.43;4.75;;;18.70;99.90;;;;;;4825211;29;20408;-89
2022/06/19 03:39:45;;;;;;;7.90;4.78;;;18.60;99.90;;;;;;4812507;29;20470;-89
2022/06/19 03:46:49;;;;;;;7.03;4.68;;;18.70;99.90;;;;;;4824743;29;20343;-90
2022/06/19 03:53:58;;;;;;;8.27;4.40;;;18.70;99.90;;;;;;4823751;29;20127;-88
2022/06/19 03:56:57;;;;;;;10.73;4.22;;;18.90;99.90;;;;;;4852197;29;20068;-88
2022/06/19 03:59:51;;;;;;;5.85;4.22;;;18.90;99.90;;;;;;4879785;29;20128;-87
2022/06/19 04:02:37;;;;;;;7.35;4.22;;;18.90;99.90;;;;;;4879898;29;20059;-87
2022/06/19 04:05:50;;;;;;;6.82;4.25;;;18.90;99.90;;;;;;4855379;29;20056;-89
2022/06/19 04:17:15;;;;;;;8.77;4.55;;;19.10;99.90;;;;;;4863928;29;20056;-89
2022/06/19 04:22:59;;;;;;;9.05;5.50;;;19.40;99.90;;;;;;5900861;23;20053;-89
2022/06/19 04:30:21;;;;;;;7.68;4.90;;;19.30;99.90;;;;;;4862918;29;20611;-89
2022/06/19 04:33:07;;;;;;;7.13;5.03;;;19.20;99.90;;;;;;4861674;29;20422;-88
2022/06/19 04:35:52;;;;;;;10.75;6.07;;;19.30;99.90;;;;;;4861984;29;20056;-90
2022/06/19 04:38:40;;;;;;;8.93;5.35;;;19.60;99.90;;;;;;4861222;29;20076;-87
2022/06/19 04:41:31;;;;;;;9.23;6.22;;;19.60;99.90;;;;;;4861627;29;20052;-86
2022/06/19 04:44:30;;;;;;;9.13;5.53;;;19.60;99.90;;;;;;4857248;29;20196;-85
2022/06/19 04:47:16;;;;;;;10.02;5.90;;;19.60;99.90;;;;;;4860041;29;20150;-86
2022/06/19 04:50:05;;;;;;;10.25;5.90;;;19.70;99.90;;;;;;4860888;29;20067;-85
2022/06/19 04:52:51;;;;;;;8.85;6.47;;;19.40;99.90;;;;;;4861145;29;20127;-87
2022/06/19 04:55:39;;;;;;;10.35;6.07;;;19.30;99.90;;;;;;4861068;29;20123;-86
2022/06/19 04:58:28;;;;;;;10.60;6.97;;;19.50;99.90;;;;;;4861474;29;20052;-90
2022/06/19 05:01:23;;;;;;;11.10;6.68;;;19.70;99.90;;;;;;4861388;29;20207;-89
2022/06/19 05:04:26;;;;;;;14.00;6.72;;;19.80;99.90;;;;;;4861643;29;20056;-90
2022/06/19 05:07:12;;;;;;;10.60;6.13;;;19.90;99.90;;;;;;4862094;29;20596;-90
2022/06/19 05:10:27;;;;;;;11.23;6.55;;;20.20;99.90;;;;;;4861046;29;20060;-88
2022/06/19 05:18:11;;;;;;;;;;;;;;;;;;;;;
2022/06/19 05:24:12;;;;;;;10.63;6.45;;;20.10;99.90;;;;;;5466297;23;20045;-88
2022/06/19 05:27:23;;;;;;;13.70;6.60;;;20.30;99.90;;;;;;4898758;29;20047;-89
2022/06/19 05:30:27;;;;;;;10.93;7.18;;;20.40;99.90;;;;;;4898435;29;20047;-89
2022/06/19 05:33:15;;;;;;;11.25;6.00;;;20.40;99.90;;;;;;4897488;29;20128;-88
2022/06/19 05:36:29;;;;;;;12.90;6.55;;;20.30;99.90;;;;;;4897882;29;20067;-89
2022/06/19 05:39:15;;;;;;;12.48;6.40;;;20.30;99.90;;;;;;4896943;29;20066;-88
2022/06/19 05:42:03;;;;;;;10.77;6.45;;;20.30;99.90;;;;;;4897235;29;20127;-88
2022/06/19 05:44:49;;;;;;;11.40;6.30;;;20.40;99.90;;;;;;4896533;29;20051;-86
2022/06/19 05:47:37;;;;;;;9.95;6.03;;;20.30;99.90;;;;;;4898442;29;20409;-87
2022/06/19 05:50:35;;;;;;;11.73;5.97;;;20.20;99.90;;;;;;4897381;29;20465;-86
2022/06/19 05:53:21;;;;;;;12.68;6.00;;;20.20;99.90;;;;;;4897604;29;20063;-89
2022/06/19 05:56:28;;;;;;;9.75;5.70;;;20.40;99.90;;;;;;4905263;23;20441;-89
2022/06/19 05:59:31;;;;;;;9.45;5.05;;;20.40;99.90;;;;;;4898311;29;20132;-87
2022/06/19 06:02:26;;;;;;;10.80;5.85;;;20.60;99.90;;;;;;4898509;29;20172;-90
2022/06/19 06:10:02;;;;;;;9.73;6.00;;;20.80;99.90;;;;;;4931047;23;20048;-88
2022/06/19 06:13:14;;;;;;;9.90;5.30;;;20.80;99.90;;;;;;4887656;29;20107;-89
2022/06/19 06:16:35;;;;;;;13.38;5.63;;;20.90;99.90;;;;;;4899471;29;20101;-89
2022/06/19 06:19:36;;;;;;;9.45;5.30;;;21.10;99.90;;;;;;4898387;29;20516;-90
2022/06/19 06:22:28;;;;;;;9.70;4.68;;;21.10;99.90;;;;;;4898569;29;20064;-89
2022/06/19 06:26:12;;;;;;;8.05;4.93;;;21.10;99.90;;;;;;4899176;29;20064;-90
2022/06/19 06:29:39;;;;;;;9.63;5.57;;;21.20;99.90;;;;;;4937504;23;20059;-90
2022/06/19 06:33:03;;;;;;;15.00;6.10;;;21.20;99.90;;;;;;4898316;29;20060;-90
2022/06/19 06:35:50;;;;;;;10.68;5.55;;;21.40;99.90;;;;;;4895364;29;20059;-88
2022/06/19 06:39:09;;;;;;;10.13;5.72;;;21.50;99.90;;;;;;4908009;23;20523;-89
2022/06/19 06:43:06;;;;;;;12.73;6.40;;;21.60;99.90;;;;;;4874180;23;21273;-88
2022/06/19 06:46:02;;;;;;;12.32;6.07;;;21.70;99.90;;;;;;4901254;29;20449;-88
2022/06/19 06:49:23;;;;;;;10.55;6.13;;;21.80;99.90;;;;;;4901524;29;20047;-90
2022/06/19 06:52:35;;;;;;;10.32;5.20;;;21.90;99.90;;;;;;4890251;29;20131;-84
2022/06/19 06:55:46;;;;;;;17.95;12.43;;;21.90;99.90;;;;;;4901573;29;20055;-89
2022/06/19 07:05:42;;;;;;;80.75;53.60;;;22.20;99.90;;;;;;4901377;29;20126;-88
2022/06/19 07:08:29;;;;;;;13.90;9.00;;;22.20;99.90;;;;;;4900137;29;20113;-86
2022/06/19 07:11:25;;;;;;;13.48;6.38;;;22.10;99.90;;;;;;4900188;29;20063;-87
2022/06/19 07:14:10;;;;;;;16.05;6.47;;;22.00;99.90;;;;;;4898872;29;20048;-89
2022/06/19 07:16:56;;;;;;;10.77;6.25;;;22.10;99.90;;;;;;4891927;29;20595;-87
2022/06/19 07:19:42;;;;;;;7.72;5.13;;;22.10;99.90;;;;;;4890043;29;20048;-86
2022/06/19 07:22:28;;;;;;;9.75;5.97;;;22.20;99.90;;;;;;4890749;29;20068;-86
2022/06/19 07:25:21;;;;;;;11.25;6.82;;;22.20;99.90;;;;;;4889083;29;20064;-87
2022/06/19 08:02:39;;;;;;;5.78;3.70;;;23.20;98.10;;;;;;5363188;23;20056;-91
2022/06/19 08:05:32;;;;;;;27.58;16.60;;;23.20;97.30;;;;;;4878839;29;20069;-80
2022/06/19 08:08:29;;;;;;;37.30;20.65;;;23.40;97.30;;;;;;4880070;29;20067;-77
2022/06/19 08:11:15;;;;;;;61.75;16.48;;;23.40;96.50;;;;;;4880461;29;20052;-78
2022/06/19 08:14:01;;;;;;;7.63;3.67;;;23.50;95.10;;;;;;4880014;29;20056;-74
2022/06/19 08:16:47;;;;;;;15.75;3.80;;;23.50;94.40;;;;;;4880313;29;20061;-82
2022/06/19 08:19:38;;;;;;;6.05;3.67;;;23.50;94.20;;;;;;4879983;29;20560;-77
2022/06/19 08:22:24;;;;;;;5.78;3.47;;;23.50;93.70;;;;;;4879984;29;20097;-76
2022/06/19 08:25:14;;;;;;;5.93;3.85;;;23.50;93.80;;;;;;4880047;29;20075;-81
2022/06/19 08:28:01;;;;;;;5.70;3.53;;;23.50;94.30;;;;;;4878817;29;20067;-82
2022/06/19 08:30:46;;;;;;;5.95;3.00;;;23.60;92.70;;;;;;4879411;29;20056;-78
2022/06/19 08:33:32;;;;;;;6.70;3.30;;;23.60;92.80;;;;;;4861079;29;20060;-81
2022/06/19 08:36:19;;;;;;;7.35;3.30;;;23.60;92.30;;;;;;4861459;29;20130;-77
2022/06/19 08:39:11;;;;;;;4.97;3.22;;;23.70;92.20;;;;;;4861349;29;20103;-82
2022/06/19 08:42:14;;;;;;;11.23;7.88;;;23.80;91.90;;;;;;4860831;29;20060;-86
2022/06/19 08:45:26;;;;;;;15.18;10.23;;;23.70;91.60;;;;;;4860649;29;20105;-83
2022/06/19 08:48:32;;;;;;;10.77;6.88;;;23.70;90.20;;;;;;4855978;29;20052;-78
2022/06/19 08:51:27;;;;;;;4.97;3.30;;;23.60;90.50;;;;;;4860943;29;20122;-79
2022/06/19 08:54:31;;;;;;;7.97;4.00;;;23.90;90.70;;;;;;4861352;29;20106;-85
2022/06/19 08:57:28;;;;;;;5.68;3.40;;;23.80;90.00;;;;;;4860188;29;20060;-81
2022/06/19 09:00:31;;;;;;;4.97;3.00;;;23.90;89.50;;;;;;4867024;29;20060;-85
2022/06/19 09:07:09;;;;;;;5.07;3.03;;;24.10;89.70;;;;;;4879814;29;20508;-79
2022/06/19 09:10:10;;;;;;;4.75;2.95;;;24.20;87.90;;;;;;4879479;29;20397;-81
2022/06/19 09:13:20;;;;;;;6.40;3.20;;;24.10;86.50;;;;;;4869673;29;20434;-83
2022/06/19 09:16:09;;;;;;;5.05;2.78;;;24.10;86.80;;;;;;4868024;29;20137;-80
2022/06/19 09:19:00;;;;;;;5.80;3.38;;;24.30;84.90;;;;;;4870670;29;20056;-80
2022/06/19 09:22:11;;;;;;;5.75;3.40;;;24.30;85.30;;;;;;4870256;29;20051;-79
2022/06/19 09:25:23;;;;;;;7.35;3.17;;;24.40;84.90;;;;;;4860530;29;20401;-84
2022/06/19 09:28:39;;;;;;;6.72;4.00;;;24.30;83.50;;;;;;4861020;29;20052;-78
2022/06/19 09:31:58;;;;;;;28.67;22.25;;;24.40;84.10;;;;;;4859164;29;20061;-83
2022/06/19 09:35:29;;;;;;;7.30;5.22;;;24.40;84.30;;;;;;4859678;29;20157;-81
2022/06/19 09:38:44;;;;;;;3.97;2.58;;;24.50;82.60;;;;;;4818202;29;20179;-80
2022/06/19 09:41:51;;;;;;;6.35;2.95;;;24.70;81.90;;;;;;4869974;29;20749;-79
2022/06/19 09:44:43;;;;;;;7.18;2.83;;;24.70;81.90;;;;;;4870814;29;20125;-82
2022/06/19 09:47:36;;;;;;;8.23;3.05;;;24.80;83.20;;;;;;4869187;29;20064;-83
2022/06/19 09:51:37;;;;;;;5.75;2.70;;;25.00;83.30;;;;;;4873628;29;20060;-81
2022/06/19 09:54:35;;;;;;;9.55;4.47;;;25.30;82.80;;;;;;4857305;29;20185;-81
2022/06/19 09:57:35;;;;;;;12.00;5.03;;;25.00;80.90;;;;;;4859226;29;20056;-84
2022/06/19 10:00:27;;;;;;;7.13;3.22;;;25.20;82.80;;;;;;4860030;29;20057;-78
2022/06/19 10:03:54;;;;;;;12.65;3.72;;;25.30;81.00;;;;;;4859795;29;20810;-80
2022/06/19 10:06:43;;;;;;;7.80;3.42;;;25.50;81.60;;;;;;4859825;29;20537;-80
2022/06/19 10:09:47;;;;;;;30.67;22.13;;;25.40;82.00;;;;;;4859158;29;20048;-81
2022/06/19 10:12:42;;;;;;;23.75;16.52;;;25.80;80.40;;;;;;4859995;29;20186;-81
2022/06/19 10:15:35;;;;;;;6.57;4.38;;;25.70;76.70;;;;;;4860028;29;20129;-78
2022/06/19 10:18:40;;;;;;;10.15;4.18;;;25.80;78.80;;;;;;4868267;29;20059;-79
2022/06/19 10:22:23;;;;;;;12.07;5.55;;;25.80;78.70;;;;;;4879255;29;20063;-77
2022/06/19 10:25:40;;;;;;;31.23;21.40;;;25.70;75.20;;;;;;4840315;29;20062;-83
2022/06/19 10:28:50;;;;;;;46.25;31.92;;;25.90;73.70;;;;;;4878692;29;20067;-76
2022/06/19 10:32:19;;;;;;;9.05;5.78;;;26.10;75.00;;;;;;4878167;29;20070;-86
2022/06/19 10:35:35;;;;;;;9.52;4.40;;;26.60;75.10;;;;;;4878038;29;20048;-83
2022/06/19 10:38:42;;;;;;;7.15;3.90;;;26.70;73.20;;;;;;4878337;29;20059;-79
2022/06/19 10:44:57;;;;;;;;;;;26.30;73.90;;;;;;4879428;29;20048;-77
2022/06/19 10:48:14;;;;;;;4.88;2.70;;;26.30;74.70;;;;;;4878735;29;19926;-77
2022/06/19 10:51:13;;;;;;;5.18;2.60;;;26.50;73.40;;;;;;4878210;29;20060;-80
2022/06/19 10:54:10;;;;;;;4.85;2.65;;;26.50;72.90;;;;;;4859326;29;20454;-78
2022/06/19 10:57:10;;;;;;;6.82;3.20;;;26.70;71.30;;;;;;4859674;29;20117;-77
2022/06/19 10:59:56;;;;;;;7.75;3.85;;;27.00;70.90;;;;;;4859887;29;20081;-78
2022/06/19 11:06:22;;;;;;;11.05;4.30;;;27.40;72.60;;;;;;4859608;29;20060;-77
2022/06/19 11:09:30;;;;;;;25.98;18.00;;;27.40;71.20;;;;;;4858328;29;20132;-76
2022/06/19 11:12:41;;;;;;;12.50;6.03;;;27.30;70.80;;;;;;4860004;29;20049;-81
2022/06/19 11:15:43;;;;;;;13.20;9.45;;;27.40;70.20;;;;;;4860156;29;20151;-81
2022/06/19 11:18:29;;;;;;;7.82;5.35;;;27.20;70.90;;;;;;4865828;29;20056;-84
2022/06/19 11:21:19;;;;;;;12.25;6.88;;;27.30;69.70;;;;;;4877972;29;20052;-85
2022/06/19 11:24:05;;;;;;;7.97;4.30;;;27.50;69.90;;;;;;4880623;29;20060;-76
2022/06/19 11:26:51;;;;;;;19.85;14.98;;;27.50;69.00;;;;;;4881136;29;20052;-74
2022/06/19 11:29:37;;;;;;;20.45;13.82;;;27.40;68.10;;;;;;4880577;29;20067;-76
2022/06/19 11:32:26;;;;;;;10.77;7.43;;;27.30;69.40;;;;;;4881151;29;20056;-76
2022/06/19 11:35:12;;;;;;;40.28;30.05;;;27.30;68.20;;;;;;4880637;29;20060;-80
2022/06/19 11:37:58;;;;;;;40.88;32.42;;;27.40;68.40;;;;;;4881027;29;20173;-74
2022/06/19 11:40:49;;;;;;;19.25;15.60;;;27.50;68.10;;;;;;4880767;29;20060;-75
2022/06/19 11:43:36;;;;;;;82.47;55.50;;;27.60;66.90;;;;;;4876644;29;20540;-76
2022/06/19 11:46:26;;;;;;;11.40;8.23;;;27.60;68.20;;;;;;4879880;29;20059;-75
2022/06/19 11:49:22;;;;;;;24.48;16.85;;;27.70;68.00;;;;;;4879249;29;20048;-76
2022/06/19 11:52:20;;;;;;;40.08;29.70;;;27.60;68.20;;;;;;4879639;29;20053;-82
2022/06/19 11:55:32;;;;;;;31.33;25.35;;;27.90;68.50;;;;;;4869528;29;20063;-82
2022/06/19 11:58:30;;;;;;;12.50;9.80;;;28.30;68.60;;;;;;4878681;29;20822;-78
2022/06/19 12:01:23;;;;;;;11.25;7.43;;;28.00;67.40;;;;;;4874880;29;20049;-79
2022/06/19 12:04:21;;;;;;;4.95;3.20;;;27.90;66.80;;;;;;4878685;29;20044;-76
2022/06/19 12:07:18;;;;;;;4.47;2.60;;;28.20;66.60;;;;;;4880073;29;20064;-75
2022/06/19 12:10:18;;;;;;;5.68;3.08;;;28.40;66.00;;;;;;4878747;29;20056;-76
2022/06/19 12:13:17;;;;;;;5.03;3.20;;;28.30;65.70;;;;;;4872962;29;20048;-78
2022/06/19 12:16:21;;;;;;;6.57;3.03;;;28.10;64.10;;;;;;4875292;29;20064;-81
2022/06/19 12:19:33;;;;;;;4.22;2.90;;;28.10;65.00;;;;;;4869885;29;20053;-81
2022/06/19 12:22:44;;;;;;;4.80;2.75;;;28.40;65.90;;;;;;4871282;29;20097;-76
2022/06/19 12:25:34;;;;;;;12.40;3.00;;;28.50;64.20;;;;;;4868596;29;20068;-77
2022/06/19 12:28:46;;;;;;;4.25;2.70;;;28.40;66.00;;;;;;4878449;29;20052;-80
2022/06/19 12:31:37;;;;;;;5.03;2.25;;;28.10;63.50;;;;;;4871240;29;20052;-76
2022/06/19 12:34:36;;;;;;;6.03;2.90;;;28.10;64.80;;;;;;4868477;29;20060;-83
2022/06/19 12:37:25;;;;;;;4.53;2.50;;;28.20;64.90;;;;;;4861522;29;20067;-75
2022/06/19 12:40:18;;;;;;;4.90;2.33;;;28.50;65.30;;;;;;4863828;29;20036;-87
2022/06/19 12:43:37;;;;;;;4.88;2.60;;;28.60;64.10;;;;;;4870822;29;20100;-78
2022/06/19 12:47:00;;;;;;;5.43;2.47;;;28.50;62.50;;;;;;4842516;29;20080;-77
2022/06/19 12:49:52;;;;;;;9.00;5.60;;;28.60;62.60;;;;;;4862097;29;20048;-91
2022/06/19 12:52:52;;;;;;;27.45;18.83;;;28.60;60.10;;;;;;4862007;29;20411;-83
2022/06/19 12:55:44;;;;;;;8.13;3.63;;;28.60;63.00;;;;;;4868235;29;20052;-84
2022/06/19 12:58:55;;;;;;;6.90;4.75;;;28.60;61.20;;;;;;4879891;29;20484;-83
2022/06/19 13:02:06;;;;;;;5.70;3.45;;;28.80;62.30;;;;;;4869334;29;20069;-79
2022/06/19 13:05:04;;;;;;;5.30;2.65;;;29.00;61.30;;;;;;4872438;29;20056;-81
2022/06/19 13:08:05;;;;;;;5.45;3.08;;;29.00;59.20;;;;;;4860857;29;20084;-85
2022/06/19 13:11:29;;;;;;;9.40;7.13;;;28.70;60.60;;;;;;4860858;29;20052;-78
2022/06/19 13:15:05;;;;;;;8.70;5.72;;;28.90;59.80;;;;;;4860287;29;20068;-77
2022/06/19 13:18:07;;;;;;;15.90;11.30;;;28.80;61.40;;;;;;4843499;29;20517;-76
2022/06/19 13:21:05;;;;;;;4.80;2.72;;;28.50;61.60;;;;;;4860475;29;20040;-81
2022/06/19 13:24:03;;;;;;;6.10;2.70;;;28.60;59.50;;;;;;4860024;29;20194;-76
2022/06/19 13:27:17;;;;;;;33.05;25.05;;;28.60;59.50;;;;;;4869185;29;20490;-83
2022/06/19 13:30:30;;;;;;;7.43;3.97;;;28.70;60.70;;;;;;4878203;29;20136;-80
2022/06/19 13:33:54;;;;;;;7.35;4.15;;;29.20;60.60;;;;;;4860821;29;20064;-77
2022/06/19 13:36:58;;;;;;;6.05;3.35;;;29.60;60.20;;;;;;4859526;29;20044;-79
2022/06/19 13:39:53;;;;;;;5.57;3.20;;;29.50;59.40;;;;;;4877729;29;20111;-79
2022/06/19 13:43:11;;;;;;;7.57;3.10;;;29.30;60.70;;;;;;4858956;29;20061;-84
2022/06/19 13:46:24;;;;;;;4.00;2.35;;;29.20;61.60;;;;;;4861534;29;20051;-83
2022/06/19 13:49:37;;;;;;;10.88;7.63;;;29.50;60.70;;;;;;4861670;29;20201;-87
2022/06/19 13:52:41;;;;;;;8.05;4.75;;;29.60;58.00;;;;;;4862206;29;20523;-85
2022/06/19 13:55:43;;;;;;;45.10;35.15;;;29.60;58.80;;;;;;4865830;29;20240;-85
2022/06/19 13:58:57;;;;;;;30.08;24.88;;;29.60;59.70;;;;;;4858455;29;20537;-81
2022/06/19 14:01:56;;;;;;;13.18;10.27;;;29.50;59.30;;;;;;4856019;29;20075;-83
2022/06/19 14:05:06;;;;;;;6.72;4.43;;;29.50;59.20;;;;;;4858813;29;20048;-86
2022/06/19 14:08:14;;;;;;;8.13;5.43;;;29.60;58.60;;;;;;4858608;29;20145;-81
2022/06/19 14:11:09;;;;;;;13.80;6.75;;;29.60;58.30;;;;;;4859365;29;20056;-78
2022/06/19 14:14:19;;;;;;;6.35;3.88;;;28.90;58.90;;;;;;4858591;29;20060;-77
2022/06/19 14:17:36;;;;;;;5.53;3.30;;;28.40;58.90;;;;;;4858247;29;20060;-76
2022/06/19 14:20:30;;;;;;;5.53;3.17;;;27.90;59.50;;;;;;4875724;29;20410;-80
2022/06/19 14:23:49;;;;;;;8.15;3.47;;;27.70;59.20;;;;;;4876543;29;20075;-82
2022/06/19 14:27:06;;;;;;;6.40;4.10;;;27.70;59.10;;;;;;4877767;29;20127;-82
2022/06/19 14:29:58;;;;;;;7.43;4.38;;;27.60;59.70;;;;;;4877353;29;20064;-81
2022/06/19 14:32:44;;;;;;;6.40;3.88;;;27.60;60.10;;;;;;4878099;29;20717;-81
2022/06/19 14:35:39;;;;;;;5.93;3.65;;;27.60;61.00;;;;;;4876718;29;20048;-81
2022/06/19 14:38:32;;;;;;;5.03;2.58;;;28.30;60.80;;;;;;4878138;29;20060;-80
2022/06/19 14:41:18;;;;;;;6.03;3.30;;;28.70;60.10;;;;;;4878111;29;20075;-81
2022/06/19 14:44:16;;;;;;;26.80;19.80;;;28.90;59.80;;;;;;4876715;29;20409;-82
2022/06/19 14:47:23;;;;;;;16.45;11.82;;;29.00;58.50;;;;;;4877644;29;20101;-80
2022/06/19 14:50:22;;;;;;;12.63;8.57;;;29.40;59.00;;;;;;4877470;29;20573;-78
2022/06/19 14:53:23;;;;;;;9.35;4.32;;;29.30;59.60;;;;;;4877625;29;20139;-78
2022/06/19 14:56:18;;;;;;;43.70;35.22;;;29.20;58.70;;;;;;4876679;29;20071;-79
2022/06/19 14:59:17;;;;;;;77.93;57.55;;;29.00;58.80;;;;;;4880043;29;20184;-81
2022/06/19 15:02:04;;;;;;;15.45;12.07;;;29.10;58.90;;;;;;4879867;29;20052;-79
2022/06/19 15:05:19;;;;;;;9.85;7.30;;;29.30;58.50;;;;;;4881002;29;20060;-86
2022/06/19 15:08:17;;;;;;;7.55;5.55;;;29.50;58.00;;;;;;4880991;29;20152;-78
2022/06/19 15:11:07;;;;;;;11.00;7.43;;;29.60;57.60;;;;;;4880220;29;20112;-83
2022/06/19 15:13:58;;;;;;;6.93;4.85;;;29.10;58.40;;;;;;4879957;29;20117;-80
2022/06/19 15:16:56;;;;;;;8.88;5.30;;;28.40;57.90;;;;;;4880471;29;20448;-79
2022/06/19 15:19:45;;;;;;;8.02;4.88;;;28.00;59.40;;;;;;4871104;29;20053;-78
2022/06/19 15:22:35;;;;;;;9.55;6.20;;;27.90;60.40;;;;;;4861832;29;20141;-80
2022/06/19 15:25:24;;;;;;;6.90;4.65;;;27.90;60.90;;;;;;4862369;29;20093;-78
2022/06/19 15:28:48;;;;;;;5.60;3.58;;;27.80;59.70;;;;;;4861894;29;20520;-79
2022/06/19 15:31:43;;;;;;;5.80;3.83;;;28.20;59.40;;;;;;4856968;29;20061;-79
2022/06/19 15:34:50;;;;;;;5.35;3.03;;;28.60;58.60;;;;;;4862111;29;20057;-79
2022/06/19 15:37:40;;;;;;;5.93;3.38;;;28.80;58.90;;;;;;4861912;29;20442;-83
2022/06/19 15:40:39;;;;;;;14.13;10.68;;;29.00;59.50;;;;;;4860836;29;20117;-81
2022/06/19 15:43:35;;;;;;;57.35;39.05;;;28.90;59.20;;;;;;4860541;29;20482;-79
2022/06/19 15:46:26;;;;;;;116.05;79.85;;;28.80;60.60;;;;;;4861645;29;20057;-80
2022/06/19 15:49:14;;;;;;;17.42;14.18;;;28.80;60.30;;;;;;4861881;29;20060;-80
2022/06/19 15:52:01;;;;;;;10.95;8.05;;;28.90;58.60;;;;;;4861923;29;20065;-80
2022/06/19 15:54:48;;;;;;;11.38;6.88;;;29.00;59.00;;;;;;4861309;29;20114;-78
2022/06/19 15:57:34;;;;;;;8.10;4.85;;;28.90;58.80;;;;;;4861625;29;20060;-78
2022/06/19 16:00:33;;;;;;;6.97;4.20;;;28.70;58.40;;;;;;4869913;29;20064;-78
2022/06/19 16:03:36;;;;;;;5.45;3.03;;;28.70;57.90;;;;;;4870824;29;20087;-81
2022/06/19 16:06:27;;;;;;;6.30;3.20;;;28.80;57.40;;;;;;4870190;29;20063;-79
2022/06/19 16:09:17;;;;;;;7.35;4.95;;;28.80;57.80;;;;;;4867259;29;20414;-77
2022/06/19 16:12:05;;;;;;;;;;;28.70;58.30;;;;;;4870466;29;20817;-79
2022/06/19 16:15:14;;;;;;;8.90;5.38;;;28.80;59.90;;;;;;4870600;29;20003;-79
2022/06/19 16:18:03;;;;;;;10.70;7.78;;;28.80;58.70;;;;;;4873908;29;20064;-75
2022/06/19 16:21:03;;;;;;;9.45;4.18;;;28.70;60.20;;;;;;4868099;29;20190;-77
2022/06/19 16:23:53;;;;;;;10.13;4.05;;;28.60;59.00;;;;;;4873317;29;20064;-79
2022/06/19 16:26:40;;;;;;;7.38;4.95;;;28.70;58.40;;;;;;4871146;29;20048;-87
2022/06/19 16:29:26;;;;;;;6.72;3.65;;;28.50;58.90;;;;;;4868804;29;20177;-77
2022/06/19 16:32:36;;;;;;;6.38;3.25;;;28.30;58.00;;;;;;4868527;29;20139;-79
2022/06/19 16:45:16;;;;;;;4.45;2.60;;;28.20;57.30;;;;;;4862986;29;20137;-78
2022/06/19 16:48:15;;;;;;;4.72;2.75;;;28.20;57.00;;;;;;4863025;29;20105;-78
2022/06/19 16:51:07;;;;;;;6.63;2.90;;;28.20;57.40;;;;;;4879065;29;20533;-81
2022/06/19 16:53:57;;;;;;;4.82;2.80;;;28.20;58.50;;;;;;4877193;29;20064;-78
2022/06/19 16:56:42;;;;;;;4.70;2.75;;;28.30;58.50;;;;;;4878556;29;20071;-78
2022/06/19 16:59:30;;;;;;;6.63;4.03;;;28.20;58.90;;;;;;4877619;29;20056;-80
2022/06/19 17:02:22;;;;;;;8.35;4.57;;;28.20;61.20;;;;;;4878425;29;20064;-80
2022/06/19 17:05:09;;;;;;;23.70;17.98;;;28.10;62.30;;;;;;4878678;29;20064;-80
2022/06/19 17:11:01;;;;;;;47.53;37.90;;;27.80;61.70;;;;;;4878696;29;20071;-82
2022/06/19 17:14:01;;;;;;;29.35;22.58;;;27.80;59.90;;;;;;4877707;29;20068;-79
2022/06/19 17:16:49;;;;;;;;;;;27.80;60.20;;;;;;4878841;29;20060;-79
2022/06/19 17:19:58;;;;;;;13.77;9.38;;;27.70;59.00;;;;;;4866588;29;20342;-78
2022/06/19 17:23:02;;;;;;;10.93;5.65;;;27.70;60.00;;;;;;4870386;29;20055;-77
2022/06/19 17:25:58;;;;;;;8.05;5.25;;;27.70;61.50;;;;;;4878923;29;20144;-77
2022/06/19 17:28:52;;;;;;;7.53;4.78;;;27.60;61.20;;;;;;4877445;29;20076;-78
2022/06/19 17:31:38;;;;;;;5.68;2.90;;;27.50;59.70;;;;;;4877615;29;20536;-78
2022/06/19 17:34:25;;;;;;;5.15;2.95;;;27.50;58.80;;;;;;4873043;29;20122;-80
2022/06/19 17:37:11;;;;;;;9.40;4.10;;;27.40;60.40;;;;;;4868500;29;20429;-78
2022/06/19 17:39:58;;;;;;;7.38;4.10;;;27.40;62.00;;;;;;4870253;29;20072;-77
2022/06/19 17:42:44;;;;;;;8.10;3.47;;;27.30;63.40;;;;;;4878244;29;20068;-77
2022/06/19 17:45:33;;;;;;;8.32;4.15;;;27.20;62.10;;;;;;4877190;29;20056;-79
2022/06/19 17:48:36;;;;;;;8.02;4.07;;;27.10;64.70;;;;;;4872811;29;20055;-79
2022/06/19 17:51:30;;;;;;;5.57;3.40;;;27.00;64.10;;;;;;4878387;29;20056;-80
2022/06/19 17:54:42;;;;;;;5.20;3.22;;;26.90;61.90;;;;;;4868310;29;20276;-79
2022/06/19 17:57:43;;;;;;;6.50;4.00;;;26.80;62.90;;;;;;4861916;29;20059;-80
2022/06/19 18:00:29;;;;;;;6.60;4.18;;;26.70;63.50;;;;;;4869033;29;20140;-84
2022/06/19 18:03:24;;;;;;;9.05;3.28;;;26.70;64.60;;;;;;4874574;29;20056;-77
2022/06/19 18:06:11;;;;;;;7.68;3.38;;;26.50;65.20;;;;;;4878075;29;20064;-78
2022/06/19 18:08:57;;;;;;;5.88;3.55;;;26.50;66.30;;;;;;4877590;29;20124;-78
2022/06/19 18:11:43;;;;;;;7.05;3.92;;;26.40;67.70;;;;;;4878037;29;20515;-79
2022/06/19 18:14:33;;;;;;;6.55;3.58;;;26.40;68.10;;;;;;4876636;29;20060;-78
2022/06/19 18:20:23;;;;;;;7.20;4.30;;;26.30;69.90;;;;;;4868174;29;19935;-79
2022/06/19 18:23:09;;;;;;;26.58;19.23;;;26.20;71.00;;;;;;4859251;29;20517;-83
2022/06/19 18:25:56;;;;;;;94.15;64.00;;;26.20;71.50;;;;;;4858458;29;20083;-82
2022/06/19 18:28:42;;;;;;;82.38;60.80;;;26.10;72.00;;;;;;4858049;29;20060;-80
2022/06/19 18:31:28;;;;;;;37.58;29.10;;;26.00;72.30;;;;;;4859986;29;20051;-78
2022/06/19 18:34:15;;;;;;;24.83;14.57;;;25.90;72.20;;;;;;4863259;29;20122;-89